Flight Track Log - Related Links

Times and Time Zones

All times are in EDT time to prevent confusion due to time zone crossing. See the JUS327 flight status page for this flight to view local times or setup timezone preferences in your user account.

Time Position Orientation Groundspeed Altitude Reporting Facility
EDT Latitude Longitude Course Direction KTS MPH feet Rate Location/Type
Sat 08:23:47 PM 26.4531 -100.2867 33° Northeast 477 549 24,900  Level Houston Center
Sat 08:24:48 PM 26.5650 -100.2025 34° Northeast 481 554 25,000 49 Climbing Houston Center
Sat 08:25:50 PM 26.6792 -100.1211 32° Northeast 484 557 25,000 -49 Level Houston Center
Sat 08:26:51 PM 26.7939 -100.0417 32° Northeast 484 557 24,900 -885 Descending Houston Center
Sat 08:27:00 PM 26.3302 -100.3618 33° Northeast  Level Estimated
Sat 08:27:52 PM 26.9017 -99.9567 35° Northeast 477 549 23,200  Level Houston Center
Sat 08:28:00 PM 26.3951 -100.3142 33° Northeast  Level Estimated
Sat 08:28:54 PM 27.0053 -99.8881 31° Northeast 445 512 20,700  Level Houston Center
Sat 08:29:00 PM 26.4601 -100.2666 33° Northeast  Level Estimated
Sat 08:29:55 PM 27.1011 -99.8206 32° Northeast 427 491 17,600  Level Houston Center
Sat 08:30:57 PM 27.1894 -99.7500 35° Northeast 408 470 14,900 -2,439 Descending Houston Center
Sat 08:31:58 PM 27.2761 -99.6883 32° Northeast 386 444 12,600 -2,098 Descending Houston Center
Sat 08:33:00 PM 27.3667 -99.6175 35° Northeast 351 404 10,600 -1,951 Descending Houston Center
Sat 08:34:01 PM 27.4369 -99.5664 33° Northeast 322 371 8,600 -1,918 Descending Houston Center
Sat 08:35:02 PM 27.5119 -99.5567 North 295 339 6,700 -1,854 Descending Houston Center
Sat 08:36:04 PM 27.5881 -99.5614 357° North 279 321 4,800 -1,659 Descending Houston Center
Sat 08:37:05 PM 27.6500 -99.5303 24° Northeast 274 315 3,300 -1,180 Descending Houston Center
Sat 08:38:06 PM 27.6461 -99.4700 94° East 221 254 2,400 -927 Descending Houston Center
Sat 08:39:08 PM 27.6061 -99.4603 168° South 173 199 1,400 -780 Descending Houston Center
Sat 08:40:09 PM 27.5719 -99.4611 181° South 142 163 800 -590 Descending Houston Center

Login

Don't have an account? Register now (free) for customized features, flight alerts, and more!